Time;durP1;ratioP1;P1;durP2;ratioP2;P2;SDS_P1;SDS_P2;PMS_P1;PMS_P2;Temp;Humidity;BMP_temperature;BMP_pressure;BME280_temperature;BME280_humidity;BME280_pressure;Samples;Min_cycle;Max_cycle;Signal;HPM_P1;HPM_P2
2023/09/29 00:02:25;;;;;;;6.15;2.90;;;;;;;13.46;100.00;98087.72;18569120;32;20362;-56
2023/09/29 00:12:27;;;;;;;10.02;5.90;;;;;;;13.37;100.00;98071.19;18567985;32;20119;-57
2023/09/29 00:22:30;;;;;;;5.97;3.75;;;;;;;13.29;100.00;98072.56;18567487;32;20089;-56
2023/09/29 00:32:33;;;;;;;6.40;3.55;;;;;;;13.30;100.00;98068.72;18553253;32;20075;-56
2023/09/29 00:42:35;;;;;;;6.15;3.50;;;;;;;13.18;100.00;98071.78;18566250;32;20052;-56
2023/09/29 00:52:39;;;;;;;9.45;3.55;;;;;;;13.08;100.00;98071.00;18565886;32;20049;-56
2023/09/29 01:02:43;;;;;;;6.90;3.30;;;;;;;13.00;100.00;98080.50;18565121;32;20064;-54
2023/09/29 01:12:46;;;;;;;8.63;3.27;;;;;;;12.92;100.00;98071.03;18498678;32;20155;-57
2023/09/29 01:22:49;;;;;;;9.75;4.35;;;;;;;12.91;100.00;98064.00;18498985;32;20044;-56
2023/09/29 01:32:53;;;;;;;6.20;3.75;;;;;;;12.84;100.00;98061.56;18497324;32;20061;-56
2023/09/29 01:42:57;;;;;;;4.12;3.03;;;;;;;12.74;100.00;98049.91;18497204;32;20108;-56
2023/09/29 01:53:00;;;;;;;8.57;3.30;;;;;;;12.62;100.00;98048.31;18497324;32;20045;-55
2023/09/29 02:03:06;;;;;;;5.37;2.83;;;;;;;12.58;100.00;98038.28;18496778;32;20112;-56
2023/09/29 02:13:10;;;;;;;5.93;2.97;;;;;;;12.47;100.00;98056.44;18553645;32;20403;-57
2023/09/29 02:23:17;;;;;;;7.12;2.80;;;;;;;12.42;100.00;98046.44;18547392;32;20088;-55
2023/09/29 02:33:20;;;;;;;5.15;2.87;;;;;;;12.37;100.00;98043.72;18560698;32;20127;-55
2023/09/29 02:43:23;;;;;;;5.47;3.10;;;;;;;12.29;100.00;98038.84;18559995;32;20137;-56
2023/09/29 02:53:26;;;;;;;12.30;2.95;;;;;;;12.20;100.00;98044.81;18556345;32;20068;-56
2023/09/29 03:03:28;;;;;;;10.73;2.92;;;;;;;12.17;100.00;98056.22;18572327;32;20053;-56
2023/09/29 03:13:31;;;;;;;7.50;2.70;;;;;;;12.17;100.00;98050.78;18505520;32;20057;-56
2023/09/29 03:23:34;;;;;;;8.48;3.20;;;;;;;12.09;100.00;98062.16;18506362;32;20057;-56
2023/09/29 03:33:38;;;;;;;6.90;3.33;;;;;;;11.97;100.00;98075.16;18505631;32;20361;-56
2023/09/29 03:43:41;;;;;;;4.73;2.83;;;;;;;11.91;100.00;98082.44;18503774;32;20091;-55
2023/09/29 03:53:46;;;;;;;9.40;3.40;;;;;;;11.90;100.00;98090.84;18490407;32;20080;-55
2023/09/29 04:03:49;;;;;;;8.40;3.70;;;;;;;11.90;100.00;98098.97;18503880;32;20040;-56
2023/09/29 04:13:52;;;;;;;6.18;3.15;;;;;;;11.87;100.00;98093.00;18501963;32;20061;-56
2023/09/29 04:23:55;;;;;;;4.75;3.58;;;;;;;11.83;100.00;98101.94;18494791;32;20098;-56
2023/09/29 04:33:58;;;;;;;5.18;3.28;;;;;;;11.87;100.00;98117.38;18502583;32;20101;-56
2023/09/29 04:44:03;;;;;;;7.93;3.65;;;;;;;11.84;100.00;98123.34;18501540;32;20120;-57
2023/09/29 04:54:10;;;;;;;8.25;3.15;;;;;;;11.79;100.00;98127.94;18501062;32;20050;-55
2023/09/29 05:04:36;;;;;;;4.82;3.28;;;;;;;11.77;100.00;98132.78;18499207;32;20072;-55
2023/09/29 05:15:02;;;;;;;9.15;3.08;;;;;;;11.70;100.00;98133.03;18563709;31;20048;-56
2023/09/29 05:25:21;;;;;;;8.63;3.15;;;;;;;11.71;100.00;98142.81;18551252;32;20048;-56
2023/09/29 05:35:52;;;;;;;4.57;3.45;;;;;;;11.68;100.00;98146.84;18550844;32;20084;-57
2023/09/29 05:46:07;;;;;;;5.50;3.28;;;;;;;11.67;100.00;98152.53;18562629;32;20124;-57
2023/09/29 05:56:11;;;;;;;5.87;3.17;;;;;;;11.72;100.00;98158.00;18562360;32;20120;-56
2023/09/29 06:06:16;;;;;;;5.12;3.15;;;;;;;11.77;100.00;98173.44;18561437;32;20044;-56
2023/09/29 06:16:19;;;;;;;5.22;3.00;;;;;;;11.82;100.00;98178.87;18560860;32;20052;-56
2023/09/29 06:26:23;;;;;;;5.03;3.40;;;;;;;12.00;100.00;98191.16;18561049;32;20048;-57
2023/09/29 06:36:25;;;;;;;6.32;3.53;;;;;;;12.19;100.00;98207.75;18546551;32;20044;-56
2023/09/29 06:46:29;;;;;;;5.57;3.67;;;;;;;12.29;100.00;98204.25;18559922;32;20064;-57
2023/09/29 06:56:43;;;;;;;5.22;3.70;;;;;;;12.47;100.00;98225.44;18559057;32;20057;-56
2023/09/29 07:06:56;;;;;;;8.48;4.10;;;;;;;12.77;100.00;98229.28;18558768;32;20036;-57
2023/09/29 07:16:58;;;;;;;8.35;4.00;;;;;;;13.15;100.00;98224.38;18545201;32;20092;-57
2023/09/29 07:27:01;;;;;;;8.55;4.47;;;;;;;13.69;100.00;98222.94;18558744;32;20457;-57
2023/09/29 07:37:04;;;;;;;5.25;3.67;;;;;;;14.51;100.00;98246.22;18551671;32;20048;-57
2023/09/29 07:47:08;;;;;;;6.45;4.28;;;;;;;15.14;100.00;98255.59;18569927;32;20101;-57
2023/09/29 07:57:11;;;;;;;5.20;3.87;;;;;;;15.36;100.00;98257.03;18569319;32;20095;-57
2023/09/29 08:07:14;;;;;;;6.70;4.00;;;;;;;15.57;100.00;98252.22;18568429;32;20063;-57
2023/09/29 08:17:18;;;;;;;5.97;4.00;;;;;;;15.54;100.00;98255.50;18568104;32;20068;-57
2023/09/29 08:27:22;;;;;;;7.32;4.30;;;;;;;15.52;100.00;98263.97;18567735;32;20415;-57
2023/09/29 08:37:25;;;;;;;6.53;4.60;;;;;;;15.78;100.00;98268.34;18553101;32;20483;-58
2023/09/29 08:47:32;;;;;;;9.10;4.45;;;;;;;16.38;100.00;98271.47;18565839;32;20105;-58
2023/09/29 08:57:36;;;;;;;6.75;4.10;;;;;;;16.93;100.00;98262.78;18565691;32;20048;-58
2023/09/29 09:07:40;;;;;;;6.90;4.40;;;;;;;17.39;100.00;98271.31;18550974;32;20063;-58
2023/09/29 09:17:45;;;;;;;6.82;4.28;;;;;;;17.94;100.00;98281.59;18564394;32;20057;-58
2023/09/29 09:27:52;;;;;;;8.57;4.55;;;;;;;18.43;100.00;98265.50;18564057;32;20053;-58
2023/09/29 09:37:56;;;;;;;8.50;4.10;;;;;;;18.94;100.00;98266.31;18563752;32;20065;-58
2023/09/29 09:48:02;;;;;;;7.60;4.37;;;;;;;19.43;100.00;98252.75;18562383;31;20115;-57
2023/09/29 09:58:13;;;;;;;10.30;4.25;;;;;;;19.84;100.00;98262.66;18561927;32;20459;-58
2023/09/29 10:08:30;;;;;;;5.93;3.80;;;;;;;20.41;100.00;98270.13;18546864;32;20040;-58
2023/09/29 10:18:36;;;;;;;7.05;3.87;;;;;;;20.78;100.00;98269.88;18562064;32;20040;-58
2023/09/29 10:28:39;;;;;;;5.28;3.35;;;;;;;21.19;100.00;98265.81;18560668;32;20067;-58
2023/09/29 10:38:46;;;;;;;3.78;3.22;;;;;;;21.48;100.00;98262.34;18560314;32;20049;-58
2023/09/29 10:48:52;;;;;;;7.57;3.85;;;;;;;21.67;100.00;98258.44;18533362;32;20103;-58
2023/09/29 10:58:58;;;;;;;6.53;3.50;;;;;;;21.87;100.00;98253.34;18559889;32;20070;-58
2023/09/29 11:09:01;;;;;;;7.03;3.28;;;;;;;22.13;100.00;98247.69;18562545;32;20045;-58
2023/09/29 11:19:12;;;;;;;5.90;3.58;;;;;;;22.61;100.00;98246.47;18544665;32;20044;-58
2023/09/29 11:29:23;;;;;;;16.15;3.83;;;;;;;23.07;100.00;98224.50;18571316;32;20100;-58
2023/09/29 11:39:25;;;;;;;5.35;3.22;;;;;;;23.71;100.00;98229.84;18556271;31;20365;-58
2023/09/29 11:49:28;;;;;;;5.28;3.10;;;;;;;23.97;100.00;98213.78;18569703;32;20036;-59
2023/09/29 11:59:31;;;;;;;5.05;3.20;;;;;;;23.94;100.00;98197.91;18569270;32;20397;-59
2023/09/29 12:09:36;;;;;;;4.82;2.97;;;;;;;24.73;100.00;98185.66;18568660;31;20364;-59
2023/09/29 12:19:40;;;;;;;3.50;2.67;;;;;;;25.09;100.00;98175.59;18567936;32;20499;-59
2023/09/29 12:29:44;;;;;;;5.15;2.83;;;;;;;25.40;100.00;98178.78;18567352;32;20048;-59
2023/09/29 12:39:49;;;;;;;3.17;2.50;;;;;;;25.23;100.00;98177.94;18566794;32;20052;-59
2023/09/29 12:49:53;;;;;;;2.85;2.22;;;;;;;25.10;100.00;98177.19;18552466;32;20056;-59
2023/09/29 12:59:57;;;;;;;3.67;2.70;;;;;;;25.43;100.00;98180.84;18565711;32;20048;-59
2023/09/29 13:10:03;;;;;;;4.45;2.35;;;;;;;25.29;100.00;98181.25;18564584;32;20040;-59
2023/09/29 13:20:07;;;;;;;5.10;2.35;;;;;;;25.26;100.00;98177.22;18564419;32;20489;-59
2023/09/29 13:30:11;;;;;;;2.42;1.80;;;;;;;24.73;100.00;98188.44;18563220;31;20052;-59
2023/09/29 13:40:16;;;;;;;7.35;2.37;;;;;;;24.42;100.00;98192.66;18549398;32;20063;-59
2023/09/29 13:50:20;;;;;;;6.28;2.75;;;;;;;24.62;100.00;98196.41;18562520;32;20089;-58
2023/09/29 14:00:24;;;;;;;8.57;3.60;;;;;;;24.63;100.00;98198.03;18548345;32;20053;-59
2023/09/29 14:10:28;;;;;;;7.85;4.20;;;;;;;24.84;100.00;98208.88;18546379;32;20056;-58
2023/09/29 14:20:35;;;;;;;9.15;4.60;;;;;;;24.82;95.81;98222.28;18561039;32;20386;-59
2023/09/29 14:30:38;;;;;;;10.07;4.93;;;;;;;24.48;100.00;98220.84;18560832;32;20101;-59
2023/09/29 14:40:41;;;;;;;6.82;4.18;;;;;;;24.21;100.00;98231.47;18560665;32;20053;-59
2023/09/29 14:50:45;;;;;;;9.85;5.12;;;;;;;23.80;100.00;98250.69;18573641;32;20052;-59
2023/09/29 15:00:48;;;;;;;9.82;5.43;;;;;;;23.47;100.00;98256.25;18573237;32;20091;-59
2023/09/29 15:10:51;;;;;;;12.25;6.68;;;;;;;23.30;100.00;98269.09;18558008;31;20068;-59
2023/09/29 15:20:54;;;;;;;14.95;7.05;;;;;;;22.97;100.00;98269.84;18571723;32;20079;-59
2023/09/29 15:30:59;;;;;;;12.85;7.87;;;;;;;22.74;100.00;98290.62;18571040;32;20085;-59
2023/09/29 15:41:07;;;;;;;18.12;9.02;;;;;;;22.53;100.00;98299.69;18570704;32;20075;-58
2023/09/29 15:51:18;;;;;;;14.43;8.43;;;;;;;22.14;100.00;98309.91;18555687;32;20419;-59
2023/09/29 16:01:20;;;;;;;;;;;;;;;22.03;100.00;98312.22;18568959;32;20122;-59
2023/09/29 16:11:24;;;;;;;16.92;8.25;;;;;;;21.69;100.00;98315.91;18568681;31;19944;-58
2023/09/29 16:21:28;;;;;;;16.20;8.68;;;;;;;21.69;100.00;98332.41;18568616;32;20061;-58
2023/09/29 16:31:31;;;;;;;18.73;9.40;;;;;;;21.38;100.00;98349.91;18567821;32;20072;-58
2023/09/29 16:41:34;;;;;;;20.70;10.00;;;;;;;21.25;100.00;98359.94;18566749;32;20044;-58
2023/09/29 16:51:38;;;;;;;19.98;10.38;;;;;;;21.17;100.00;98386.31;18566177;32;20044;-58
2023/09/29 17:01:41;;;;;;;22.33;11.45;;;;;;;20.87;100.00;98412.78;18565618;32;20091;-58
2023/09/29 17:11:45;;;;;;;30.45;13.02;;;;;;;20.85;100.00;98442.56;18563565;32;20045;-58
2023/09/29 17:21:49;;;;;;;33.30;14.75;;;;;;;20.60;100.00;98444.88;18550347;32;20041;-58
2023/09/29 17:31:56;;;;;;;32.38;13.50;;;;;;;20.41;100.00;98451.41;18563592;32;20440;-58
2023/09/29 17:42:01;;;;;;;30.58;13.50;;;;;;;20.25;100.00;98440.00;18563099;32;20106;-58
2023/09/29 17:52:04;;;;;;;32.15;13.82;;;;;;;19.94;100.00;98440.00;18548416;32;20045;-58
2023/09/29 18:02:07;;;;;;;26.53;11.57;;;;;;;19.62;100.00;98458.28;18562244;31;20045;-58
2023/09/29 18:12:11;;;;;;;25.37;10.63;;;;;;;19.43;100.00;98477.66;18561312;32;20053;-58
2023/09/29 18:22:14;;;;;;;27.48;10.60;;;;;;;19.19;100.00;98506.13;18560672;31;20048;-58
2023/09/29 18:32:17;;;;;;;24.80;9.93;;;;;;;19.01;100.00;98505.13;18561216;32;20040;-58
2023/09/29 18:42:21;;;;;;;23.92;9.20;;;;;;;18.78;100.00;98491.28;18560533;32;20061;-58
2023/09/29 18:52:24;;;;;;;18.93;7.47;;;;;;;18.58;100.00;98508.94;18545992;32;20117;-58
2023/09/29 19:02:28;;;;;;;18.40;7.15;;;;;;;18.31;100.00;98514.34;18560136;32;20053;-58
2023/09/29 19:12:31;;;;;;;16.50;6.60;;;;;;;18.09;100.00;98527.56;18559294;32;20084;-58
2023/09/29 19:22:34;;;;;;;16.60;7.57;;;;;;;17.90;100.00;98535.78;18558991;32;20429;-58
2023/09/29 19:32:39;;;;;;;14.03;6.73;;;;;;;17.75;100.00;98558.69;18565192;32;20061;-58
2023/09/29 19:42:43;;;;;;;14.52;6.85;;;;;;;17.57;100.00;98571.25;18570721;32;20075;-58
2023/09/29 19:52:47;;;;;;;;;;;;;;;17.48;100.00;98566.75;18570294;31;20040;-58
2023/09/29 20:02:50;;;;;;;12.88;6.00;;;;;;;17.44;100.00;98574.69;18569526;32;19999;-58
2023/09/29 20:12:53;;;;;;;17.40;5.47;;;;;;;17.25;100.00;98583.69;18502425;32;20079;-58
2023/09/29 20:22:56;;;;;;;11.88;5.60;;;;;;;17.05;100.00;98578.47;18489643;32;20350;-58
2023/09/29 20:33:04;;;;;;;12.75;5.03;;;;;;;16.86;100.00;98616.59;18503110;32;20060;-58
2023/09/29 20:43:07;;;;;;;12.27;4.65;;;;;;;16.90;100.00;98593.91;18495305;32;20048;-58
2023/09/29 20:53:11;;;;;;;10.52;4.40;;;;;;;16.91;100.00;98603.72;18501447;32;20111;-58
2023/09/29 21:03:15;;;;;;;;;;;;;;;16.85;100.00;98612.22;18500821;32;20065;-59
2023/09/29 21:13:19;;;;;;;10.40;3.95;;;;;;;16.87;100.00;98621.78;18557753;32;19944;-58
2023/09/29 21:23:21;;;;;;;9.77;4.03;;;;;;;16.73;100.00;98629.00;18564498;32;20477;-59
2023/09/29 21:33:30;;;;;;;10.60;3.20;;;;;;;16.70;100.00;98627.66;18549459;32;20068;-59
2023/09/29 21:43:50;;;;;;;10.48;3.12;;;;;;;16.64;100.00;98628.81;18563156;32;20086;-58
2023/09/29 21:54:03;;;;;;;7.75;3.12;;;;;;;16.47;100.00;98623.75;18562312;32;20500;-58
2023/09/29 22:04:06;;;;;;;459.45;36.50;;;;;;;16.30;100.00;98628.81;18561984;32;20075;-58
2023/09/29 22:14:09;;;;;;;1.13;0.63;;;;;;;16.13;100.00;98631.91;18547252;32;20494;-58
2023/09/29 22:24:12;;;;;;;11.27;3.33;;;;;;;15.93;100.00;98620.84;18546815;32;20066;-58
2023/09/29 22:34:15;;;;;;;5.45;2.22;;;;;;;15.69;100.00;98617.12;18560299;32;20080;-58
2023/09/29 22:44:18;;;;;;;8.83;2.57;;;;;;;15.66;100.00;98612.25;18560418;32;20053;-58
2023/09/29 22:54:20;;;;;;;9.57;2.62;;;;;;;15.48;100.00;98608.25;18532994;32;20063;-58
2023/09/29 23:04:23;;;;;;;5.05;2.58;;;;;;;15.39;100.00;98610.75;18562372;32;20075;-58
2023/09/29 23:14:26;;;;;;;5.50;2.47;;;;;;;15.28;100.00;98609.13;18506132;32;20068;-58
2023/09/29 23:24:28;;;;;;;6.43;2.62;;;;;;;15.19;100.00;98612.41;18506939;32;20075;-58
2023/09/29 23:34:31;;;;;;;7.47;2.72;;;;;;;15.19;100.00;98634.22;18480402;32;20151;-58
2023/09/29 23:44:34;;;;;;;12.95;2.62;;;;;;;15.19;100.00;98645.13;18491753;32;20101;-58
2023/09/29 23:54:38;;;;;;;8.35;2.90;;;;;;;14.94;100.00;98642.44;18505155;32;20441;-58
